Aérodrome :
LOGIN :

S'inscrire | Disclaimer

   EN    FR    IT 

 










Légende :    VFR   VFR Marginal   IFR   IFR Intensif   IFR Très Intensif
Visi : 
Plafond : 
>= 8 km
>= 3000ft
5 à 8 km
1000 à 3000 ft
1500m à 5 km
500 à 1000 ft
800 à 1500m
200 à 500 ft
< 800m
< 200 ft
Symboles :   Orages  Brouillard  Fortes neiges  Fortes précipitations  Vent > 20 kt
SIGMETs :   Divers  Orages  Givrage  Turbulence  Onde Orograph.  Cendres Volcan.







- Altitude de l'aérodrome : 93 ft
- Code IATA : XRY


LEJR - Jerez

DERNIER METAR :
  • 210830Z 36006KT 9999 BKN050 14/12 Q1009

METARs EXPIRÉS :
  • 210800Z 36005KT 330V030 9999 BKN050 14/12 Q1009
  • 210730Z 35005KT 320V020 9999 FEW035 OVC050 13/12 Q1009
  • 210700Z 34005KT 9999 FEW035 OVC050 13/12 Q1009
  • 210630Z 35004KT 320V020 9999 FEW035 BKN050 12/12 Q1009
  • 210600Z VRB02KT 9999 FEW035 BKN050 12/12 Q1009

TAF TAF LEJR
Valide du 21 à 06h jusqu'au 22 à 06h UTC


210500Z 2106/2206 VRB02KT 9999 FEW030 TX18/2114Z TN10/2106Z
PROB30
TEMPO 2106/2109 3000 BR
BECMG 2108/2110 05010KT
Pas de NOTAMs connus pour ce terrain.



MET'MAP, la Météo Aéronautique d'un coup d'oeil ! - Copyright ORBIFLY Décembre 2007 - Disclaimer

ORBIFLY MET'MAP TEAM :

Programmation & Développement : Alexandra Zaïnal
Conception & Développement : Baudouin d'Aumeries
Co-Programmation & Développement : Marc-Olivier Méhu
Soutien technique & logistique : Manuel Goepfert

Contact : metmap@orbifly.com




SOURCES & CREDITS :

   NOAA